• Join FlightAware (Why Join?)
  • Login
  • US Flag 
12:14AM EDT


 

Airport Tracker/Info


-or-


 

Live Flight TrackerFlight Track Log ✈ RPA3143 ✈ 10-Jul-2013 ✈ KPIT - KDCA

Flight Track Log - Related Links

Times and Time Zones

All times are in EDT time to prevent confusion due to time zone crossing. See the RPA3143 flight status page for this flight to view local times or setup timezone preferences in your user account.

Time Position Orientation Groundspeed Altitude Reporting Facility
EDT Latitude Longitude Course Direction KTS MPH feet Rate Location/Type
06:01AM 40.5044 -80.2881 161° South 160 184 2,900  Level Cleveland Center
06:02AM 40.4672 -80.3131 207° Southwest 181 208 4,700 2,520 Climbing Cleveland Center
06:03AM 40.3314 -79.9062 164° South  Level Estimated
06:03AM 40.4003 -80.2806 160° South 196 226 8,000  Level Cleveland Center
06:04AM 40.2778 -79.7976 162° South  Level Estimated
06:04AM 40.3167 -80.2344 157° South 253 291 11,100  Level Cleveland Center
06:05AM 40.1951 -79.8680 213° Southwest  Level FlightAware Approximate
06:05AM 40.2353 -80.1942 159° South 299 344 13,800  Level Cleveland Center
06:06AM 40.1447 -79.7571 161° South  Level Estimated
06:06AM 40.1433 -80.1486 159° South 334 384 19,000  Level Cleveland Center
06:07AM 40.0475 -80.1031 160° South 354 407 18,400 660 Descending Cleveland Center
06:09AM 39.8517 -80.0078 160° South 371 427 21,000 840 Climbing Washington Center
06:10AM 39.7533 -79.9561 158° South 377 434 21,000  Level Washington Center
06:11AM 39.6508 -79.9094 161° South 384 442 21,000  Level Washington Center
06:12AM 39.5483 -79.8628 161° South 384 442 21,000  Level Washington Center
06:13AM 39.4428 -79.8431 172° South 384 442 21,000  Level Washington Center
06:14AM 39.3644 -79.7553 139° Southeast 373 429 21,000  Level Washington Center
06:15AM 39.3422 -79.6144 101° East 356 410 21,000  Level Washington Center
06:16AM 39.3175 -79.4761 103° East 361 415 21,000  Level Washington Center
06:17AM 39.2931 -79.3356 103° East 384 442 21,000  Level Washington Center
06:18AM 39.2656 -79.2106 106° East 389 448 21,000  Level Washington Center
06:19AM 39.2406 -79.0675 103° East 400 460 21,000  Level Washington Center
06:20AM 39.2194 -78.9297 101° East 400 460 21,000  Level Washington Center
06:21AM 39.2044 -78.7897 98° East 395 455 21,000 -60 Level Washington Center
06:22AM 39.1917 -78.6447 96° East 395 455 20,900 -1,140 Descending Washington Center
06:23AM 39.1761 -78.5047 98° East 395 455 18,800 -2,040 Descending Washington Center
06:24AM 39.1608 -78.3675 98° East 389 448 17,000 -900 Descending Washington Center
06:25AM 39.1322 -78.2406 106° East 379 436 17,000  Level Washington Center
06:26AM 39.0997 -78.1111 108° East 374 430 17,000 -900 Level Washington Center
06:27AM 39.0669 -77.9844 108° East 374 430 15,300 -2,040 Descending Washington Center
06:28AM 39.0339 -77.8550 108° East 357 411 13,100 -1,920 Descending Washington Center
06:29AM 39.0047 -77.7419 108° East 341 392 11,500 -1,740 Descending Washington Center
06:30AM 38.9775 -77.6317 108° East 327 376 9,700 -1,620 Descending Washington Center
06:31AM 38.9478 -77.5294 110° East 316 364 8,300 -1,140 Descending Washington Center
06:32AM 38.9833 -77.4167 68° East 262 302 7,200 -840 Descending Potomac TRACON
06:33AM 39.0167 -77.3333 63° Northeast 235 270 6,500 -1,080 Descending Potomac TRACON
06:34AM 39.0333 -77.2667 72° East 225 259 5,100 -1,500 Descending Potomac TRACON
06:35AM 39.0000 -77.2167 131° Southeast 211 243 3,700 -1,140 Descending Potomac TRACON
06:36AM 38.9667 -77.1500 123° Southeast 187 215 3,000 -720 Descending Potomac TRACON